CST,Max TemperatureF,Mean TemperatureF,Min TemperatureF,Max Dew PointF,MeanDew PointF,Min DewpointF,Max Humidity, Mean Humidity, Min Humidity, Max Sea Level PressureIn, Mean Sea Level PressureIn, Min Sea Level PressureIn, Max VisibilityMiles, Mean VisibilityMiles, Min VisibilityMiles, Max Wind SpeedMPH, Mean Wind SpeedMPH, Max Gust SpeedMPH,PrecipitationIn, CloudCover, Events, WindDirDegrees
2012-11-1,49,43,37,43,39,35,100,90,60,30.07,29.99,29.88,10,4,0,16,9,,0.00,4,Fog,73
2012-11-2,43,36,28,39,35,28,98,89,68,30.11,29.97,29.83,10,6,1,20,11,25,0.00,5,,277
2012-11-3,52,39,26,38,33,25,99,83,53,30.21,30.16,30.11,10,9,0,9,5,,0.00,4,Fog,297
2012-11-4,45,37,29,41,34,28,100,90,70,30.14,30.09,30.05,10,8,0,12,5,,0.00,5,Fog-Rain,24
2012-11-5,50,43,36,38,35,31,97,76,48,30.21,30.10,29.94,10,9,3,20,10,24,0.05,6,Rain-Thunderstorm,281
2012-11-6,55,44,32,44,26,16,81,50,22,30.16,30.10,29.96,10,10,10,31,14,38,0.01,1,Rain,314
2012-11-7,64,44,25,28,23,20,83,47,20,30.15,29.97,29.80,10,10,10,24,11,30,0.00,0,,189
2012-11-8,57,44,32,36,33,27,94,60,44,29.95,29.89,29.76,10,10,5,25,16,32,0.00,1,,353
2012-11-9,39,36,33,38,36,33,100,96,90,29.93,29.81,29.63,4,2,0,14,8,17,0.00,8,Fog-Snow,62
2012-11-10,39,29,19,38,31,13,98,91,75,29.85,29.62,29.53,10,5,0,30,10,43,0.00,8,Fog-Rain-Snow-Thunderstorm,317
2012-11-11,27,20,12,13,9,4,77,65,48,30.11,29.99,29.84,10,10,10,24,16,32,0.00,0,,300
2012-11-12,39,28,16,16,12,8,76,56,28,30.25,30.20,30.11,10,10,10,20,11,25,0.00,0,,261
2012-11-13,46,35,24,26,20,15,89,60,35,30.25,30.20,30.17,10,10,10,13,7,,0.00,3,,251
2012-11-14,56,39,22,29,25,20,94,62,28,30.23,30.15,30.07,10,10,7,18,7,24,0.00,0,,228
2012-11-15,48,36,23,29,26,19,90,68,40,30.42,30.32,30.14,10,10,10,15,7,,0.00,0,,323
2012-11-16,57,40,22,32,26,19,91,63,28,30.40,30.21,30.08,10,10,10,30,13,36,0.00,0,,177
2012-11-17,66,52,37,36,33,28,84,60,25,30.08,30.02,29.97,10,10,10,18,13,21,0.00,0,,193
2012-11-18,65,50,35,38,33,29,82,57,28,30.00,29.92,29.85,10,10,10,21,10,26,0.00,0,,195
2012-11-19,57,44,30,35,26,18,74,53,25,30.17,30.08,29.90,10,10,10,16,9,18,0.00,0,,301
2012-11-20,72,50,29,28,22,14,73,37,11,30.17,30.06,29.99,10,10,10,24,10,32,0.00,0,,209
2012-11-21,76,58,40,23,19,8,47,28,7,29.99,29.84,29.72,10,10,10,17,11,23,0.00,0,,214
2012-11-22,52,38,23,34,24,9,66,45,22,30.40,30.04,29.71,10,10,10,31,16,41,0.00,1,,309
2012-11-23,36,26,15,13,10,8,73,56,33,30.52,30.41,30.21,10,10,10,22,12,34,0.00,0,,295
2012-11-24,57,42,27,28,18,13,60,42,21,30.19,29.93,29.80,10,10,10,15,8,,0.00,1,,244
2012-11-25,45,38,30,32,30,24,99,82,52,30.15,30.01,29.91,10,7,1,14,5,,0.01,6,Snow,357
2012-11-26,30,22,14,29,19,12,96,89,79,30.42,30.31,30.16,10,7,1,14,7,,0.14,4,Snow,309
2012-11-27,35,28,20,26,21,16,86,78,65,30.26,30.17,30.09,10,10,10,16,10,,0.01,0,,250
2012-11-28,39,26,14,30,21,10,87,74,58,30.26,30.11,29.99,10,10,10,23,9,26,0.00,0,,206
2012-11-29,50,34,19,35,25,16,90,75,53,30.01,29.94,29.84,10,10,10,14,6,,0.00,0,,253
2012-11-30,55,39,23,38,29,22,92,74,48,30.04,29.94,29.78,10,10,10,16,7,22,0.00,0,,184